createdAt,value
2017-11-09T00:02:10.718Z,69.42
2017-11-09T00:04:44.707Z,79.86
2017-11-09T00:07:12.987Z,86.88
2017-11-09T00:09:41.240Z,86.62
2017-11-09T00:12:09.545Z,75.82
2017-11-09T00:14:37.795Z,74.88
2017-11-09T00:17:06.060Z,86.38
2017-11-09T00:19:34.578Z,83.48
2017-11-09T00:22:03.798Z,94.00
2017-11-09T00:24:32.070Z,85.54
2017-11-09T00:27:00.323Z,75.04
2017-11-09T00:29:28.624Z,90.76
2017-11-09T00:31:56.888Z,78.90
2017-11-09T00:34:25.148Z,90.66
2017-11-09T00:36:53.438Z,85.20
2017-11-09T00:39:21.696Z,84.32
2017-11-09T00:41:51.091Z,86.76
2017-11-09T00:44:20.644Z,81.18
2017-11-09T00:46:48.905Z,87.06
2017-11-09T00:49:17.148Z,82.28
2017-11-09T00:51:45.445Z,75.46
2017-11-09T00:54:13.700Z,80.86
2017-11-09T00:56:41.952Z,81.74
2017-11-09T00:59:10.232Z,84.84
2017-11-09T01:01:38.508Z,73.42
2017-11-09T01:04:06.794Z,88.08
2017-11-09T01:06:35.084Z,80.40
2017-11-09T01:09:03.354Z,76.68
2017-11-09T01:11:31.635Z,79.74
2017-11-09T01:13:59.897Z,79.30
2017-11-09T01:16:28.167Z,78.66
2017-11-09T01:18:56.473Z,78.90
2017-11-09T01:21:24.732Z,78.50
2017-11-09T01:23:52.982Z,90.92
2017-11-09T01:26:21.277Z,79.96
2017-11-09T01:28:51.601Z,77.78
2017-11-09T01:31:21.824Z,85.94
2017-11-09T01:33:51.090Z,91.00
2017-11-09T01:36:20.644Z,93.36
2017-11-09T01:38:48.892Z,84.16
2017-11-09T01:41:17.188Z,81.44
2017-11-09T01:43:45.443Z,81.84
2017-11-09T01:46:13.703Z,76.84
2017-11-09T01:48:41.980Z,94.08
2017-11-09T01:51:10.268Z,86.80
2017-11-09T01:53:38.528Z,86.46
2017-11-09T01:56:06.780Z,83.50
2017-11-09T01:58:35.051Z,88.62
2017-11-09T02:01:03.337Z,92.96
2017-11-09T02:03:31.587Z,80.14
2017-11-09T02:05:59.872Z,82.48
2017-11-09T02:08:28.143Z,85.04
2017-11-09T02:10:56.392Z,107.88
2017-11-09T02:13:24.673Z,98.60
2017-11-09T02:15:52.920Z,84.28
2017-11-09T02:18:27.416Z,84.16
2017-11-09T02:20:55.711Z,86.62
2017-11-09T02:23:23.981Z,103.18
2017-11-09T02:25:51.468Z,84.16
2017-11-09T02:28:20.965Z,85.48
2017-11-09T02:30:50.126Z,96.40
2017-11-09T02:33:19.261Z,85.80
2017-11-09T02:35:47.564Z,91.98
2017-11-09T02:38:15.824Z,95.00
2017-11-09T02:40:44.108Z,102.70
2017-11-09T02:43:12.361Z,86.70
2017-11-09T02:45:40.656Z,90.94
2017-11-09T02:48:08.923Z,89.36
2017-11-09T02:50:37.184Z,78.52
2017-11-09T02:55:58.625Z,95.20
2017-11-09T02:58:26.921Z,111.48
2017-11-09T03:00:55.181Z,102.48
2017-11-09T03:03:23.468Z,103.18
2017-11-09T03:06:01.179Z,99.64
2017-11-09T03:08:29.466Z,125.12
2017-11-09T03:10:57.752Z,103.58
2017-11-09T03:13:26.033Z,108.52
2017-11-09T03:15:57.729Z,109.02
2017-11-09T03:18:26.016Z,105.50
2017-11-09T03:20:54.291Z,100.12
2017-11-09T03:23:22.589Z,106.62
2017-11-09T03:26:00.876Z,104.80
2017-11-09T03:28:29.165Z,93.24
2017-11-09T03:31:01.296Z,102.60
2017-11-09T03:33:29.592Z,117.64
2017-11-09T03:36:06.159Z,95.50
2017-11-09T03:38:34.444Z,117.94
2017-11-09T03:41:22.105Z,111.74
2017-11-09T03:43:51.024Z,111.46
2017-11-09T03:46:21.608Z,117.38
2017-11-09T03:48:51.603Z,103.28
2017-11-09T03:54:14.564Z,119.92
2017-11-09T03:56:42.819Z,122.36
2017-11-09T03:59:31.553Z,92.28
2017-11-09T04:01:59.817Z,110.44
2017-11-09T04:04:38.275Z,119.90
2017-11-09T04:07:06.540Z,110.34
2017-11-09T04:09:36.807Z,112.16
2017-11-09T04:12:05.095Z,111.22
2017-11-09T04:14:34.316Z,109.10
2017-11-09T04:17:02.603Z,108.98
2017-11-09T04:19:31.864Z,98.44
2017-11-09T04:22:00.120Z,106.70
2017-11-09T04:24:28.400Z,95.40
2017-11-09T04:26:56.655Z,101.42
2017-11-09T04:29:24.941Z,103.20
2017-11-09T04:31:53.197Z,92.46
2017-11-09T04:37:19.617Z,97.30
2017-11-09T04:39:48.550Z,98.20
2017-11-09T04:42:16.807Z,99.44
2017-11-09T04:44:45.055Z,99.04
2017-11-09T04:47:20.501Z,75.16
2017-11-09T04:49:50.554Z,100.32
2017-11-09T04:52:20.612Z,94.30
2017-11-09T04:54:49.812Z,103.56
2017-11-09T04:57:24.096Z,93.20
2017-11-09T04:59:52.359Z,105.62
2017-11-09T05:02:21.744Z,87.44
2017-11-09T05:04:51.427Z,95.56
2017-11-09T05:07:21.728Z,81.42
2017-11-09T05:09:51.398Z,94.86
2017-11-09T05:12:21.614Z,88.54
2017-11-09T05:14:51.162Z,92.88
2017-11-09T05:17:29.263Z,87.98
2017-11-09T05:19:57.552Z,99.40
2017-11-09T05:22:30.644Z,105.94
2017-11-09T05:24:58.884Z,84.84
2017-11-09T05:27:31.903Z,91.36
2017-11-09T05:30:00.164Z,111.50
2017-11-09T05:32:28.417Z,80.10
2017-11-09T05:34:56.708Z,90.06
2017-11-09T05:37:24.963Z,105.04
2017-11-09T05:40:00.507Z,95.80
2017-11-09T05:42:28.786Z,106.64
2017-11-09T05:44:58.073Z,111.92
2017-11-09T05:47:26.367Z,105.06
2017-11-09T05:50:06.598Z,102.70
2017-11-09T05:52:34.884Z,100.80
2017-11-09T05:55:07.151Z,127.08
2017-11-09T05:57:35.435Z,123.32
2017-11-09T06:00:09.876Z,114.76
2017-11-09T06:02:38.160Z,126.42
2017-11-09T06:05:07.409Z,122.58
2017-11-09T06:07:35.691Z,111.64
2017-11-09T06:10:10.200Z,125.40
2017-11-09T06:12:38.463Z,101.38
2017-11-09T06:15:06.752Z,124.92
2017-11-09T06:17:35.018Z,108.90
2017-11-09T06:20:05.247Z,108.08
2017-11-09T06:22:33.509Z,134.04
2017-11-09T06:25:01.782Z,102.02
2017-11-09T06:27:30.156Z,111.54
2017-11-09T06:29:58.456Z,125.90
2017-11-09T06:32:26.748Z,116.18
2017-11-09T06:34:54.265Z,125.24
2017-11-09T06:37:21.783Z,114.96
2017-11-09T06:40:00.087Z,124.36
2017-11-09T06:42:28.373Z,119.12
2017-11-09T06:45:07.280Z,119.40
2017-11-09T06:47:35.559Z,98.32
2017-11-09T06:50:07.804Z,111.96
2017-11-09T06:52:36.065Z,109.48
2017-11-09T06:55:04.352Z,118.24
2017-11-09T06:57:32.636Z,137.42
2017-11-09T07:00:00.891Z,110.18
2017-11-09T07:02:29.168Z,105.32
2017-11-09T07:04:57.461Z,106.46
2017-11-09T07:07:25.711Z,126.36
2017-11-09T07:09:54.941Z,104.82
2017-11-09T07:12:23.232Z,104.90
2017-11-09T07:15:01.203Z,86.94
2017-11-09T07:17:29.492Z,89.76
2017-11-09T07:20:01.419Z,112.14
2017-11-09T07:22:29.672Z,90.88
2017-11-09T07:25:05.309Z,97.46
2017-11-09T07:27:33.596Z,95.50
2017-11-09T07:30:01.848Z,102.46
2017-11-09T07:32:30.127Z,87.98
2017-11-09T07:35:18.102Z,84.68
2017-11-09T07:37:45.622Z,105.14
2017-11-09T07:40:13.875Z,93.28
2017-11-09T07:42:42.159Z,113.42
2017-11-09T07:45:10.447Z,85.40
2017-11-09T07:47:38.709Z,110.50
2017-11-09T07:50:06.987Z,80.84
2017-11-09T07:52:35.278Z,91.10
2017-11-09T07:55:03.564Z,84.86
2017-11-09T07:57:31.834Z,89.74
2017-11-09T08:00:00.125Z,89.06
2017-11-09T08:02:28.376Z,82.06
2017-11-09T08:04:56.673Z,80.18
2017-11-09T08:07:24.924Z,96.28
2017-11-09T08:09:53.176Z,94.16
2017-11-09T08:12:27.460Z,88.48
2017-11-09T08:14:55.720Z,87.34
2017-11-09T08:17:23.971Z,85.20
2017-11-09T08:19:52.248Z,85.22
2017-11-09T08:22:21.601Z,79.64
2017-11-09T08:24:52.404Z,74.38
2017-11-09T08:27:25.166Z,80.36
2017-11-09T08:29:54.752Z,84.46
2017-11-09T08:32:23.228Z,82.14
2017-11-09T08:34:51.490Z,81.88
2017-11-09T08:37:20.991Z,80.06
2017-11-09T08:39:50.592Z,79.82
2017-11-09T08:42:19.781Z,73.44
2017-11-09T08:44:48.704Z,68.34
2017-11-09T08:47:16.991Z,79.26
2017-11-09T08:49:45.257Z,67.50
2017-11-09T08:52:13.512Z,74.64
2017-11-09T08:54:41.803Z,71.86
2017-11-09T08:57:10.091Z,68.04
2017-11-09T08:59:38.343Z,69.90
2017-11-09T09:02:06.644Z,74.04
2017-11-09T09:04:34.896Z,73.78
2017-11-09T09:07:03.149Z,75.22
2017-11-09T09:09:31.431Z,67.76
2017-11-09T09:11:59.680Z,77.22
2017-11-09T09:14:27.945Z,70.54
2017-11-09T09:16:56.230Z,62.92
2017-11-09T09:19:24.476Z,72.56
2017-11-09T09:21:53.184Z,69.70
2017-11-09T09:24:40.269Z,54.64
2017-11-09T09:27:11.138Z,74.98
2017-11-09T09:29:50.106Z,75.16
2017-11-09T09:32:19.397Z,72.20
2017-11-09T09:34:55.355Z,74.10
2017-11-09T09:40:15.472Z,73.64
2017-11-09T09:42:51.030Z,69.08
2017-11-09T09:45:20.421Z,70.86
2017-11-09T09:47:50.503Z,69.32
2017-11-09T09:50:20.564Z,68.82
2017-11-09T09:52:51.363Z,77.20
2017-11-09T09:55:20.885Z,76.38
2017-11-09T09:57:49.933Z,69.58
2017-11-09T10:00:18.632Z,74.08
2017-11-09T10:02:46.897Z,76.64
2017-11-09T10:05:15.147Z,72.04
2017-11-09T10:07:43.443Z,71.56
2017-11-09T10:10:11.699Z,76.78
2017-11-09T10:12:39.984Z,70.20
2017-11-09T10:15:08.239Z,78.64
2017-11-09T10:17:36.500Z,77.72
2017-11-09T10:20:04.788Z,73.48
2017-11-09T10:22:33.047Z,81.02
2017-11-09T10:25:01.319Z,84.00
2017-11-09T10:27:29.567Z,77.26
2017-11-09T10:30:00.185Z,79.76
2017-11-09T10:32:31.372Z,70.78
2017-11-09T10:34:59.669Z,72.72
2017-11-09T10:37:27.919Z,75.44
2017-11-09T10:39:56.181Z,82.78
2017-11-09T10:42:24.464Z,73.96
2017-11-09T10:44:52.719Z,76.10
2017-11-09T10:47:27.359Z,74.38
2017-11-09T10:49:55.612Z,77.54
2017-11-09T10:52:23.867Z,77.00
2017-11-09T10:54:51.387Z,81.52
2017-11-09T10:57:20.755Z,76.08
2017-11-09T10:59:49.984Z,78.72
2017-11-09T11:02:25.548Z,94.70
2017-11-09T11:04:53.833Z,63.52
2017-11-09T11:07:23.632Z,86.42
2017-11-09T11:09:52.293Z,84.64
2017-11-09T11:12:21.855Z,75.16
2017-11-09T11:14:51.712Z,86.34
2017-11-09T11:17:21.237Z,81.84
2017-11-09T11:19:50.616Z,97.80
2017-11-09T11:22:21.156Z,90.32
2017-11-09T11:24:50.642Z,94.58
2017-11-09T11:27:20.317Z,95.52
2017-11-09T11:29:48.648Z,78.38
2017-11-09T11:32:16.912Z,92.06
2017-11-09T11:34:45.225Z,78.60
2017-11-09T11:37:14.408Z,79.34
2017-11-09T11:39:42.655Z,91.84
2017-11-09T11:42:10.961Z,78.08
2017-11-09T11:44:39.216Z,87.04
2017-11-09T11:47:07.496Z,80.36
2017-11-09T11:49:35.757Z,88.34
2017-11-09T11:52:04.049Z,76.22
2017-11-09T11:54:32.309Z,91.74
2017-11-09T11:57:00.563Z,85.58
2017-11-09T11:59:28.851Z,76.52
2017-11-09T12:01:57.103Z,96.54
2017-11-09T12:04:25.396Z,83.66
2017-11-09T12:06:53.682Z,87.76
2017-11-09T12:09:21.947Z,73.60
2017-11-09T12:11:53.062Z,80.98
2017-11-09T12:14:21.322Z,86.24
2017-11-09T12:16:50.803Z,92.68
2017-11-09T12:19:19.384Z,90.12
2017-11-09T12:21:47.649Z,85.04
2017-11-09T12:24:15.917Z,78.58
2017-11-09T12:26:47.636Z,82.68
2017-11-09T12:29:15.896Z,85.24
2017-11-09T12:31:44.158Z,82.20
2017-11-09T12:34:12.448Z,70.90
2017-11-09T12:36:40.740Z,74.80
2017-11-09T12:39:09.028Z,76.96
2017-11-09T12:41:37.326Z,82.38
2017-11-09T12:44:05.615Z,84.42
2017-11-09T12:46:33.877Z,74.62
2017-11-09T12:49:02.155Z,88.80
2017-11-09T12:51:30.411Z,81.56
2017-11-09T12:53:58.701Z,77.30
2017-11-09T12:56:26.971Z,74.38
2017-11-09T12:58:55.257Z,72.50
2017-11-09T13:01:26.560Z,80.06
2017-11-09T13:03:54.844Z,78.00
2017-11-09T13:06:23.120Z,72.10
2017-11-09T13:08:51.412Z,76.82
2017-11-09T13:11:24.556Z,94.42
2017-11-09T13:13:52.803Z,74.26
2017-11-09T13:16:26.867Z,79.36
2017-11-09T13:18:55.120Z,79.74
2017-11-09T13:21:23.413Z,73.40
2017-11-09T13:23:51.673Z,76.34
2017-11-09T13:26:19.873Z,84.64
2017-11-09T13:28:48.219Z,72.70
2017-11-09T13:31:16.508Z,71.16
2017-11-09T13:33:45.572Z,75.30
2017-11-09T13:36:13.855Z,80.38
2017-11-09T13:38:42.140Z,83.58
2017-11-09T13:41:10.408Z,77.44
2017-11-09T13:43:38.696Z,84.10
2017-11-09T13:46:06.996Z,78.36
2017-11-09T13:48:35.251Z,85.28
2017-11-09T13:51:03.499Z,79.36
2017-11-09T13:53:32.690Z,67.42
2017-11-09T13:56:00.944Z,72.66
2017-11-09T13:58:29.241Z,72.54
2017-11-09T14:00:57.521Z,76.46
2017-11-09T14:03:25.829Z,67.80
2017-11-09T14:05:54.477Z,76.02
2017-11-09T14:08:23.085Z,74.22
2017-11-09T14:10:52.084Z,75.78
2017-11-09T14:13:21.688Z,73.02
2017-11-09T14:15:51.194Z,75.92
2017-11-09T14:18:20.483Z,80.44
2017-11-09T14:20:50.424Z,70.38
2017-11-09T14:23:18.721Z,75.76
2017-11-09T14:25:47.015Z,69.02
2017-11-09T14:28:15.274Z,74.02
2017-11-09T14:30:43.542Z,72.84
2017-11-09T14:33:11.836Z,73.38
2017-11-09T14:35:40.102Z,70.68
2017-11-09T14:38:08.360Z,81.66
2017-11-09T14:40:37.580Z,79.48
2017-11-09T14:43:05.866Z,73.32
2017-11-09T14:45:34.161Z,73.06
2017-11-09T14:48:02.431Z,86.80
2017-11-09T14:50:30.704Z,84.34
2017-11-09T14:52:58.983Z,67.16
2017-11-09T14:55:27.281Z,78.74
2017-11-09T14:57:55.539Z,76.84
2017-11-09T15:00:23.845Z,72.66
2017-11-09T15:02:51.372Z,74.90
2017-11-09T15:05:20.327Z,89.36
2017-11-09T15:07:49.496Z,73.10
2017-11-09T15:10:17.789Z,78.58
2017-11-09T15:12:46.068Z,76.26
2017-11-09T15:15:14.324Z,64.52
2017-11-09T15:17:42.608Z,79.56
2017-11-09T15:20:10.913Z,75.74
2017-11-09T15:22:39.176Z,73.46
2017-11-09T15:25:07.429Z,81.54
2017-11-09T15:27:35.716Z,78.20
2017-11-09T15:30:03.973Z,70.34
2017-11-09T15:32:34.195Z,75.04
2017-11-09T15:35:02.441Z,67.20
2017-11-09T15:37:30.727Z,79.48
2017-11-09T15:39:58.254Z,73.06
2017-11-09T15:42:26.499Z,74.48
2017-11-09T15:44:54.756Z,74.12
2017-11-09T15:47:23.043Z,74.34
2017-11-09T15:49:51.305Z,78.70
2017-11-09T15:52:20.568Z,74.42
2017-11-09T15:54:49.908Z,75.74
2017-11-09T15:57:18.829Z,71.04
2017-11-09T15:59:47.111Z,76.98
2017-11-09T16:02:15.415Z,72.30
2017-11-09T16:04:43.663Z,73.20
2017-11-09T16:07:17.724Z,75.02
2017-11-09T16:09:46.011Z,80.44
2017-11-09T16:12:14.294Z,78.34
2017-11-09T16:14:42.550Z,73.94
2017-11-09T16:17:10.842Z,85.16
2017-11-09T16:19:39.100Z,62.32
2017-11-09T16:22:07.384Z,77.06
2017-11-09T16:24:35.681Z,81.62
2017-11-09T16:27:03.940Z,65.76
2017-11-09T16:29:32.189Z,73.70
2017-11-09T16:32:00.469Z,83.20
2017-11-09T16:34:27.967Z,72.96
2017-11-09T16:36:56.258Z,68.24
2017-11-09T16:39:24.513Z,76.44
2017-11-09T16:41:52.816Z,75.90
2017-11-09T16:44:27.052Z,70.80
2017-11-09T16:46:55.347Z,64.42
2017-11-09T16:49:23.606Z,70.22
2017-11-09T16:51:51.851Z,77.86
2017-11-09T16:54:21.172Z,79.42
2017-11-09T16:56:50.808Z,81.74
2017-11-09T16:59:21.025Z,80.48
2017-11-09T17:01:49.281Z,65.30
2017-11-09T17:04:17.532Z,74.02
2017-11-09T17:06:45.814Z,78.32
2017-11-09T17:09:14.069Z,59.06
2017-11-09T17:11:42.364Z,56.74
2017-11-09T17:14:10.628Z,64.04
2017-11-09T17:16:38.883Z,71.22
2017-11-09T17:19:10.112Z,66.22
2017-11-09T17:21:38.360Z,70.14
2017-11-09T17:24:06.643Z,66.32
2017-11-09T17:26:34.929Z,69.66
2017-11-09T17:29:03.220Z,65.30
2017-11-09T17:31:31.500Z,76.64
2017-11-09T17:33:59.791Z,64.76
2017-11-09T17:36:28.051Z,66.30
2017-11-09T17:38:55.580Z,67.94
2017-11-09T17:41:23.841Z,67.94
2017-11-09T17:43:52.692Z,65.48
2017-11-09T17:46:21.836Z,65.12
2017-11-09T17:48:50.975Z,61.94
2017-11-09T17:51:20.356Z,61.78
2017-11-09T17:53:49.256Z,66.90
2017-11-09T17:56:17.556Z,64.34
2017-11-09T17:58:45.824Z,71.88
2017-11-09T18:01:14.112Z,69.34
2017-11-09T18:03:42.374Z,65.90
2017-11-09T18:06:10.659Z,66.74
2017-11-09T18:08:38.918Z,61.82
2017-11-09T18:11:07.201Z,72.30
2017-11-09T18:13:35.461Z,65.42
2017-11-09T18:16:03.742Z,61.12
2017-11-09T18:18:31.994Z,67.40
2017-11-09T18:21:00.292Z,69.72
2017-11-09T18:23:28.543Z,77.64
2017-11-09T18:25:56.800Z,59.28
2017-11-09T18:28:25.092Z,59.98
2017-11-09T18:30:53.376Z,64.02
2017-11-09T18:33:21.724Z,74.46
2017-11-09T18:35:50.770Z,68.90
2017-11-09T18:38:20.109Z,57.28
2017-11-09T18:40:48.798Z,75.10
2017-11-09T18:43:17.080Z,56.32
2017-11-09T18:45:45.327Z,58.26
2017-11-09T18:48:13.611Z,77.60
2017-11-09T18:50:41.872Z,62.60
2017-11-09T18:53:09.399Z,59.90
2017-11-09T18:55:37.656Z,55.64
2017-11-09T18:58:05.166Z,56.80
2017-11-09T19:00:41.205Z,63.38
2017-11-09T19:03:09.455Z,54.56
2017-11-09T19:05:37.749Z,51.24
2017-11-09T19:08:06.018Z,65.52
2017-11-09T19:10:34.312Z,73.68
2017-11-09T19:13:02.565Z,75.94
2017-11-09T19:15:30.893Z,68.52
2017-11-09T19:18:17.973Z,65.32
2017-11-09T19:20:46.268Z,71.46
2017-11-09T19:23:14.515Z,69.94
2017-11-09T19:25:42.824Z,83.10
2017-11-09T19:28:11.093Z,61.52
2017-11-09T19:30:39.364Z,73.76
2017-11-09T19:33:07.663Z,75.64
2017-11-09T19:35:35.923Z,67.40
2017-11-09T19:38:03.448Z,65.06
2017-11-09T19:40:31.719Z,72.54
2017-11-09T19:43:00.061Z,78.36
2017-11-09T19:45:28.336Z,68.44
2017-11-09T19:47:56.636Z,78.66
2017-11-09T19:50:24.933Z,77.20
2017-11-09T19:52:53.212Z,92.76
2017-11-09T19:55:21.468Z,87.38
2017-11-09T19:57:50.947Z,85.12
2017-11-09T20:00:22.797Z,77.72
2017-11-09T20:02:51.607Z,79.46
2017-11-09T20:05:20.668Z,75.06
2017-11-09T20:07:50.382Z,80.72
2017-11-09T20:10:20.168Z,70.26
2017-11-09T20:12:48.846Z,66.82
2017-11-09T20:15:17.096Z,78.16
2017-11-09T20:17:52.292Z,79.38
2017-11-09T20:20:21.873Z,85.64
2017-11-09T20:22:51.027Z,73.98
2017-11-09T20:25:19.701Z,82.02
2017-11-09T20:27:48.005Z,73.50
2017-11-09T20:30:16.300Z,79.66
2017-11-09T20:32:44.659Z,75.60
2017-11-09T20:35:13.153Z,79.58
2017-11-09T20:37:41.440Z,76.40
2017-11-09T20:40:09.742Z,71.58
2017-11-09T20:42:37.997Z,77.00
2017-11-09T20:45:06.286Z,78.52
2017-11-09T20:47:34.580Z,75.64
2017-11-09T20:50:02.853Z,81.32
2017-11-09T20:52:31.147Z,85.56
2017-11-09T20:54:58.627Z,66.40
2017-11-09T20:57:26.878Z,66.72
2017-11-09T20:59:55.164Z,73.46
2017-11-09T21:02:26.031Z,68.14
2017-11-09T21:04:53.553Z,78.06
2017-11-09T21:07:21.821Z,67.58
2017-11-09T21:09:50.990Z,76.34
2017-11-09T21:12:19.780Z,67.48
2017-11-09T21:14:49.630Z,60.68
2017-11-09T21:17:17.883Z,66.28
2017-11-09T21:19:46.133Z,71.34
2017-11-09T21:22:14.415Z,61.38
2017-11-09T21:24:42.668Z,66.28
2017-11-09T21:27:10.971Z,69.84
2017-11-09T21:29:39.221Z,70.84
2017-11-09T21:32:07.504Z,73.78
2017-11-09T21:34:35.765Z,76.22
2017-11-09T21:37:04.052Z,63.56
2017-11-09T21:39:32.308Z,66.92
2017-11-09T21:42:00.586Z,69.70
2017-11-09T21:44:28.868Z,74.62
2017-11-09T21:46:57.133Z,75.56
2017-11-09T21:49:25.413Z,68.56
2017-11-09T21:51:53.685Z,71.10
2017-11-09T21:54:21.972Z,64.68
2017-11-09T21:56:52.580Z,76.88
2017-11-09T21:59:22.217Z,72.36
2017-11-09T22:01:54.259Z,71.72
2017-11-09T22:04:22.508Z,71.76
2017-11-09T22:06:52.799Z,74.26
2017-11-09T22:09:22.464Z,72.74
2017-11-09T22:11:51.856Z,75.64
2017-11-09T22:14:21.333Z,82.84
2017-11-09T22:16:50.671Z,64.54
2017-11-09T22:19:21.210Z,81.34
2017-11-09T22:21:50.452Z,72.44
2017-11-09T22:24:19.634Z,71.22
2017-11-09T22:26:47.928Z,72.70
2017-11-09T22:29:16.210Z,70.66
2017-11-09T22:31:44.487Z,58.58
2017-11-09T22:34:12.008Z,70.20
2017-11-09T22:36:40.303Z,66.00
2017-11-09T22:39:08.554Z,55.20
2017-11-09T22:41:36.799Z,54.98
2017-11-09T22:44:05.080Z,62.76
2017-11-09T22:46:33.331Z,58.98
2017-11-09T22:49:01.620Z,57.24
2017-11-09T22:51:29.871Z,64.98
2017-11-09T22:53:58.136Z,56.64
2017-11-09T22:56:26.463Z,55.08
2017-11-09T22:58:54.724Z,56.08
2017-11-09T23:01:23.009Z,53.52
2017-11-09T23:03:51.292Z,53.16
2017-11-09T23:06:20.884Z,57.66
2017-11-09T23:08:50.240Z,47.78
2017-11-09T23:11:19.962Z,54.88
2017-11-09T23:13:49.041Z,49.48
2017-11-09T23:16:17.412Z,44.82
2017-11-09T23:18:45.660Z,55.48
2017-11-09T23:21:13.923Z,50.28
2017-11-09T23:23:42.211Z,46.94
2017-11-09T23:26:10.468Z,50.88
2017-11-09T23:28:38.769Z,47.34
2017-11-09T23:31:07.028Z,55.48
2017-11-09T23:33:35.279Z,47.62
2017-11-09T23:36:03.559Z,44.60
2017-11-09T23:38:31.806Z,44.58
2017-11-09T23:41:00.088Z,52.06
2017-11-09T23:43:28.331Z,54.56
2017-11-09T23:45:56.613Z,45.30
2017-11-09T23:48:24.863Z,43.32
2017-11-09T23:50:53.139Z,43.54
2017-11-09T23:53:21.727Z,38.90
2017-11-09T23:55:50.731Z,36.38
2017-11-09T23:58:20.780Z,40.26
